sensor_id;sensor_type;location;lat;lon;timestamp;pressure;altitude;pressure_sealevel;temperature;humidity
48644;BME280;34928;37.302;-121.984;2022-07-23T00:08:12;100646.0;;;32.75;22.79
48644;BME280;34928;37.302;-121.984;2022-07-23T00:18:17;100639.0;;;32.82;22.59
48644;BME280;34928;37.302;-121.984;2022-07-23T00:28:22;100645.0;;;32.86;22.91
48644;BME280;34928;37.302;-121.984;2022-07-23T00:38:27;100643.0;;;32.63;22.92
48644;BME280;34928;37.302;-121.984;2022-07-23T00:48:32;100639.0;;;32.96;22.94
48644;BME280;34928;37.302;-121.984;2022-07-23T00:58:40;100636.0;;;32.75;22.82
48644;BME280;34928;37.302;-121.984;2022-07-23T01:08:47;100632.0;;;33.14;22.99
48644;BME280;34928;37.302;-121.984;2022-07-23T01:18:52;100627.0;;;33.21;23.19
48644;BME280;34928;37.302;-121.984;2022-07-23T01:28:57;100619.0;;;32.80;23.02
48644;BME280;34928;37.302;-121.984;2022-07-23T01:39:03;100621.0;;;32.78;23.21
48644;BME280;34928;37.302;-121.984;2022-07-23T01:49:07;100626.0;;;32.97;23.16
48644;BME280;34928;37.302;-121.984;2022-07-23T01:59:12;100627.0;;;32.97;23.18
48644;BME280;34928;37.302;-121.984;2022-07-23T02:09:17;100626.0;;;32.83;22.33
48644;BME280;34928;37.302;-121.984;2022-07-23T02:19:22;100627.0;;;32.57;22.05
48644;BME280;34928;37.302;-121.984;2022-07-23T02:29:27;100622.0;;;32.74;22.28
48644;BME280;34928;37.302;-121.984;2022-07-23T02:39:32;100624.0;;;32.91;22.25
48644;BME280;34928;37.302;-121.984;2022-07-23T02:49:37;100632.0;;;32.56;22.46
48644;BME280;34928;37.302;-121.984;2022-07-23T02:59:42;100634.0;;;32.46;22.17
48644;BME280;34928;37.302;-121.984;2022-07-23T03:09:47;100641.0;;;32.29;23.00
48644;BME280;34928;37.302;-121.984;2022-07-23T03:19:52;100646.0;;;32.43;23.24
48644;BME280;34928;37.302;-121.984;2022-07-23T03:29:58;100651.0;;;32.28;23.38
48644;BME280;34928;37.302;-121.984;2022-07-23T03:40:03;100651.0;;;31.73;23.71
48644;BME280;34928;37.302;-121.984;2022-07-23T03:50:08;100655.0;;;31.85;24.08
48644;BME280;34928;37.302;-121.984;2022-07-23T04:00:13;100664.0;;;31.72;24.26
48644;BME280;34928;37.302;-121.984;2022-07-23T04:10:17;100663.0;;;31.46;24.55
48644;BME280;34928;37.302;-121.984;2022-07-23T04:20:22;100673.0;;;31.24;24.60
48644;BME280;34928;37.302;-121.984;2022-07-23T04:30:28;100681.0;;;31.14;24.93
48644;BME280;34928;37.302;-121.984;2022-07-23T04:40:32;100687.0;;;31.51;24.90
48644;BME280;34928;37.302;-121.984;2022-07-23T04:50:37;100701.0;;;30.89;25.20
48644;BME280;34928;37.302;-121.984;2022-07-23T05:00:42;100706.0;;;30.75;25.51
48644;BME280;34928;37.302;-121.984;2022-07-23T05:10:47;100710.0;;;30.47;25.85
48644;BME280;34928;37.302;-121.984;2022-07-23T05:20:52;100708.0;;;30.38;25.96
48644;BME280;34928;37.302;-121.984;2022-07-23T05:30:57;100711.0;;;30.11;26.03
48644;BME280;34928;37.302;-121.984;2022-07-23T05:41:03;100706.0;;;29.95;25.99
48644;BME280;34928;37.302;-121.984;2022-07-23T05:49:32;100698.0;;;29.69;26.15
48644;BME280;34928;37.302;-121.984;2022-07-23T05:59:37;100701.0;;;29.97;26.35
48644;BME280;34928;37.302;-121.984;2022-07-23T06:09:42;100690.0;;;29.55;26.34
48644;BME280;34928;37.302;-121.984;2022-07-23T06:19:47;100676.0;;;29.51;26.29
48644;BME280;34928;37.302;-121.984;2022-07-23T06:29:53;100667.0;;;29.49;26.41
48644;BME280;34928;37.302;-121.984;2022-07-23T06:39:57;100664.0;;;29.36;26.60
48644;BME280;34928;37.302;-121.984;2022-07-23T06:50:03;100659.0;;;29.24;26.79
48644;BME280;34928;37.302;-121.984;2022-07-23T07:00:08;100649.0;;;29.21;26.99
48644;BME280;34928;37.302;-121.984;2022-07-23T07:10:12;100649.0;;;28.99;26.91
48644;BME280;34928;37.302;-121.984;2022-07-23T07:20:17;100639.0;;;29.32;26.71
48644;BME280;34928;37.302;-121.984;2022-07-23T07:30:22;100635.0;;;29.58;26.41
48644;BME280;34928;37.302;-121.984;2022-07-23T07:40:28;100624.0;;;29.71;26.27
48644;BME280;34928;37.302;-121.984;2022-07-23T07:47:32;100623.0;;;29.28;26.21
48644;BME280;34928;37.302;-121.984;2022-07-23T07:57:38;100618.0;;;29.78;26.23
48644;BME280;34928;37.302;-121.984;2022-07-23T08:07:42;100617.0;;;29.38;26.09
48644;BME280;34928;37.302;-121.984;2022-07-23T08:17:48;100617.0;;;29.89;26.11
48644;BME280;34928;37.302;-121.984;2022-07-23T08:27:53;100624.0;;;29.72;26.04
48644;BME280;34928;37.302;-121.984;2022-07-23T08:37:58;100627.0;;;29.95;26.03
48644;BME280;34928;37.302;-121.984;2022-07-23T08:48:02;100635.0;;;29.97;26.07
48644;BME280;34928;37.302;-121.984;2022-07-23T08:58:07;100634.0;;;30.01;26.05
48644;BME280;34928;37.302;-121.984;2022-07-23T09:08:13;100631.0;;;29.83;26.03
48644;BME280;34928;37.302;-121.984;2022-07-23T09:18:17;100635.0;;;29.79;26.07
48644;BME280;34928;37.302;-121.984;2022-07-23T09:28:22;100638.0;;;30.01;26.06
48644;BME280;34928;37.302;-121.984;2022-07-23T09:38:27;100647.0;;;29.77;26.04
48644;BME280;34928;37.302;-121.984;2022-07-23T09:48:32;100642.0;;;29.74;25.99
48644;BME280;34928;37.302;-121.984;2022-07-23T09:58:40;100647.0;;;29.46;25.99
48644;BME280;34928;37.302;-121.984;2022-07-23T10:08:48;100654.0;;;29.71;25.96
48644;BME280;34928;37.302;-121.984;2022-07-23T10:18:57;100658.0;;;29.68;25.89
48644;BME280;34928;37.302;-121.984;2022-07-23T10:29:10;100653.0;;;29.88;25.86
48644;BME280;34928;37.302;-121.984;2022-07-23T10:39:22;100656.0;;;29.84;25.89
48644;BME280;34928;37.302;-121.984;2022-07-23T10:49:29;100656.0;;;29.62;25.87
48644;BME280;34928;37.302;-121.984;2022-07-23T10:59:34;100650.0;;;29.77;25.85
48644;BME280;34928;37.302;-121.984;2022-07-23T11:09:52;100664.0;;;29.50;25.85
48644;BME280;34928;37.302;-121.984;2022-07-23T11:40:38;100678.0;;;29.65;25.98
48644;BME280;34928;37.302;-121.984;2022-07-23T11:50:42;100684.0;;;29.64;26.02
48644;BME280;34928;37.302;-121.984;2022-07-23T12:00:47;100686.0;;;29.55;26.10
48644;BME280;34928;37.302;-121.984;2022-07-23T12:10:52;100694.0;;;29.54;26.10
48644;BME280;34928;37.302;-121.984;2022-07-23T12:21:02;100704.0;;;29.28;26.10
48644;BME280;34928;37.302;-121.984;2022-07-23T12:31:07;100706.0;;;29.48;26.10
48644;BME280;34928;37.302;-121.984;2022-07-23T12:41:12;100708.0;;;29.45;26.12
48644;BME280;34928;37.302;-121.984;2022-07-23T12:51:19;100708.0;;;29.41;26.15
48644;BME280;34928;37.302;-121.984;2022-07-23T13:01:25;100708.0;;;29.57;26.18
48644;BME280;34928;37.302;-121.984;2022-07-23T13:09:14;100703.0;;;29.09;26.20
48644;BME280;34928;37.302;-121.984;2022-07-23T13:19:17;100714.0;;;29.23;26.30
48644;BME280;34928;37.302;-121.984;2022-07-23T13:29:22;100714.0;;;29.21;26.32
48644;BME280;34928;37.302;-121.984;2022-07-23T13:39:27;100709.0;;;29.23;26.28
48644;BME280;34928;37.302;-121.984;2022-07-23T13:49:32;100719.0;;;29.20;26.30
48644;BME280;34928;37.302;-121.984;2022-07-23T14:00:22;100723.0;;;29.15;26.39
48644;BME280;34928;37.302;-121.984;2022-07-23T14:10:27;100723.0;;;29.11;26.43
48644;BME280;34928;37.302;-121.984;2022-07-23T14:20:32;100740.0;;;29.19;26.34
48644;BME280;34928;37.302;-121.984;2022-07-23T14:30:37;100748.0;;;29.35;26.39
48644;BME280;34928;37.302;-121.984;2022-07-23T14:40:42;100737.0;;;29.17;26.40
48644;BME280;34928;37.302;-121.984;2022-07-23T14:50:47;100745.0;;;29.17;26.38
48644;BME280;34928;37.302;-121.984;2022-07-23T15:00:52;100738.0;;;29.21;26.17
48644;BME280;34928;37.302;-121.984;2022-07-23T15:10:57;100742.0;;;29.17;26.29
48644;BME280;34928;37.302;-121.984;2022-07-23T15:21:02;100752.0;;;29.22;26.39
48644;BME280;34928;37.302;-121.984;2022-07-23T15:31:07;100744.0;;;29.20;26.38
48644;BME280;34928;37.302;-121.984;2022-07-23T15:36:42;100751.0;;;29.16;26.51
48644;BME280;34928;37.302;-121.984;2022-07-23T15:46:47;100738.0;;;29.18;26.69
48644;BME280;34928;37.302;-121.984;2022-07-23T15:56:52;100738.0;;;28.65;27.34
48644;BME280;34928;37.302;-121.984;2022-07-23T16:06:58;100737.0;;;28.40;27.67
48644;BME280;34928;37.302;-121.984;2022-07-23T16:17:02;100731.0;;;28.79;27.39
48644;BME280;34928;37.302;-121.984;2022-07-23T16:27:07;100725.0;;;28.89;27.99
48644;BME280;34928;37.302;-121.984;2022-07-23T16:37:12;100729.0;;;28.63;28.14
48644;BME280;34928;37.302;-121.984;2022-07-23T16:47:17;100723.0;;;28.66;29.80
48644;BME280;34928;37.302;-121.984;2022-07-23T16:57:23;100713.0;;;28.73;28.48
48644;BME280;34928;37.302;-121.984;2022-07-23T17:07:27;100702.0;;;29.07;27.56
48644;BME280;34928;37.302;-121.984;2022-07-23T17:17:32;100699.0;;;28.97;27.36
48644;BME280;34928;37.302;-121.984;2022-07-23T17:27:37;100701.0;;;28.93;27.13
48644;BME280;34928;37.302;-121.984;2022-07-23T17:37:42;100688.0;;;29.26;27.32
48644;BME280;34928;37.302;-121.984;2022-07-23T17:47:47;100682.0;;;29.28;27.05
48644;BME280;34928;37.302;-121.984;2022-07-23T17:57:53;100666.0;;;29.20;27.08
48644;BME280;34928;37.302;-121.984;2022-07-23T18:08:32;100661.0;;;29.43;26.94
48644;BME280;34928;37.302;-121.984;2022-07-23T18:18:37;100666.0;;;29.41;27.18
48644;BME280;34928;37.302;-121.984;2022-07-23T18:28:42;100666.0;;;29.59;27.00
48644;BME280;34928;37.302;-121.984;2022-07-23T18:38:47;100657.0;;;29.74;26.79
48644;BME280;34928;37.302;-121.984;2022-07-23T18:48:52;100646.0;;;29.58;26.74
48644;BME280;34928;37.302;-121.984;2022-07-23T18:58:57;100630.0;;;29.65;26.68
48644;BME280;34928;37.302;-121.984;2022-07-23T19:09:03;100624.0;;;29.81;26.54
48644;BME280;34928;37.302;-121.984;2022-07-23T19:19:07;100620.0;;;29.65;26.42
48644;BME280;34928;37.302;-121.984;2022-07-23T19:29:12;100613.0;;;29.66;26.49
48644;BME280;34928;37.302;-121.984;2022-07-23T19:39:18;100599.0;;;30.02;26.48
48644;BME280;34928;37.302;-121.984;2022-07-23T19:43:27;100586.0;;;29.90;26.34
48644;BME280;34928;37.302;-121.984;2022-07-23T19:53:32;100586.0;;;30.23;26.42
48644;BME280;34928;37.302;-121.984;2022-07-23T20:03:37;100574.0;;;30.20;26.33
48644;BME280;34928;37.302;-121.984;2022-07-23T20:10:23;100568.0;;;30.19;26.45
48644;BME280;34928;37.302;-121.984;2022-07-23T20:20:27;100558.0;;;30.38;26.36
48644;BME280;34928;37.302;-121.984;2022-07-23T20:30:32;100553.0;;;30.49;26.24
48644;BME280;34928;37.302;-121.984;2022-07-23T20:40:37;100537.0;;;30.55;26.37
48644;BME280;34928;37.302;-121.984;2022-07-23T20:50:43;100538.0;;;31.15;26.00
48644;BME280;34928;37.302;-121.984;2022-07-23T21:00:47;100527.0;;;31.30;25.84
48644;BME280;34928;37.302;-121.984;2022-07-23T21:10:52;100528.0;;;31.34;25.93
48644;BME280;34928;37.302;-121.984;2022-07-23T21:20:57;100530.0;;;31.50;25.79
48644;BME280;34928;37.302;-121.984;2022-07-23T21:31:02;100527.0;;;31.42;25.51
48644;BME280;34928;37.302;-121.984;2022-07-23T21:41:07;100515.0;;;31.61;25.61
48644;BME280;34928;37.302;-121.984;2022-07-23T21:51:12;100501.0;;;31.36;25.74
48644;BME280;34928;37.302;-121.984;2022-07-23T22:01:18;100485.0;;;31.73;25.82
48644;BME280;34928;37.302;-121.984;2022-07-23T22:11:22;100473.0;;;31.47;25.98
48644;BME280;34928;37.302;-121.984;2022-07-23T22:21:27;100467.0;;;31.82;25.91
48644;BME280;34928;37.302;-121.984;2022-07-23T22:31:32;100472.0;;;31.64;25.94
48644;BME280;34928;37.302;-121.984;2022-07-23T22:41:37;100461.0;;;31.95;25.89
48644;BME280;34928;37.302;-121.984;2022-07-23T22:51:43;100449.0;;;31.53;25.82
48644;BME280;34928;37.302;-121.984;2022-07-23T23:01:47;100449.0;;;31.88;25.76
48644;BME280;34928;37.302;-121.984;2022-07-23T23:11:53;100448.0;;;31.80;25.56
48644;BME280;34928;37.302;-121.984;2022-07-23T23:21:57;100444.0;;;31.98;25.63
48644;BME280;34928;37.302;-121.984;2022-07-23T23:32:03;100437.0;;;31.98;25.61
48644;BME280;34928;37.302;-121.984;2022-07-23T23:42:07;100427.0;;;32.19;25.66
48644;BME280;34928;37.302;-121.984;2022-07-23T23:52:12;100422.0;;;32.35;25.90
